Time;durP1;ratioP1;P1;durP2;ratioP2;P2;SDS_P1;SDS_P2;PMS_P1;PMS_P2;Temp;Humidity;BMP_temperature;BMP_pressure;BME280_temperature;BME280_humidity;BME280_pressure;Samples;Min_cycle;Max_cycle;Signal;HPM_P1;HPM_P2
2023/09/30 00:00:18;;;;;;;6.60;3.43;;;20.70;99.90;;;;;;5072120;28;20178;-89
2023/09/30 00:02:47;;;;;;;6.93;3.10;;;20.70;99.90;;;;;;5074833;28;20390;-89
2023/09/30 00:05:19;;;;;;;8.37;2.67;;;20.70;99.90;;;;;;5092649;28;20202;-89
2023/09/30 00:07:48;;;;;;;5.63;2.80;;;20.60;99.90;;;;;;5079716;28;20175;-89
2023/09/30 00:10:14;;;;;;;5.17;2.57;;;20.60;99.90;;;;;;5091862;28;20175;-89
2023/09/30 00:12:40;;;;;;;5.33;2.57;;;20.50;99.90;;;;;;5082798;28;20258;-89
2023/09/30 00:15:06;;;;;;;6.40;2.90;;;20.40;99.90;;;;;;5089491;28;20517;-89
2023/09/30 00:17:32;;;;;;;6.27;3.13;;;20.30;99.90;;;;;;5086043;28;20167;-89
2023/09/30 00:19:59;;;;;;;8.10;3.30;;;20.40;99.90;;;;;;5066322;28;20541;-89
2023/09/30 00:22:24;;;;;;;7.83;3.53;;;20.40;99.90;;;;;;5087381;28;20224;-89
2023/09/30 00:24:50;;;;;;;8.30;3.70;;;20.40;99.90;;;;;;5082667;28;20186;-89
2023/09/30 00:27:19;;;;;;;6.27;3.13;;;20.40;99.90;;;;;;5085516;28;20175;-89
2023/09/30 00:29:44;;;;;;;8.90;3.17;;;20.40;99.90;;;;;;5079023;28;20178;-89
2023/09/30 00:32:10;;;;;;;7.40;3.13;;;20.40;99.90;;;;;;5088918;28;20227;-89
2023/09/30 00:34:40;;;;;;;7.63;2.90;;;20.40;99.90;;;;;;5079472;28;20186;-89
2023/09/30 00:37:09;;;;;;;5.63;3.20;;;20.40;99.90;;;;;;5090851;28;20187;-90
2023/09/30 00:39:34;;;;;;;7.03;2.93;;;20.40;99.90;;;;;;5075361;28;20262;-89
2023/09/30 00:42:04;;;;;;;6.73;3.17;;;20.30;99.90;;;;;;5072548;28;20298;-89
2023/09/30 00:44:31;;;;;;;6.40;3.27;;;20.30;99.90;;;;;;5084300;28;20168;-89
2023/09/30 00:46:56;;;;;;;6.83;3.30;;;20.10;99.90;;;;;;5073070;28;20258;-89
2023/09/30 00:49:25;;;;;;;7.47;3.40;;;20.20;99.90;;;;;;5084724;28;20511;-89
2023/09/30 00:51:55;;;;;;;9.40;3.00;;;20.10;99.90;;;;;;5072222;28;20236;-89
2023/09/30 00:54:24;;;;;;;7.10;3.70;;;20.10;99.90;;;;;;5084968;28;20183;-89
2023/09/30 00:56:55;;;;;;;6.73;3.50;;;20.10;99.90;;;;;;5073053;28;20175;-89
2023/09/30 00:59:21;;;;;;;8.37;3.57;;;20.20;99.90;;;;;;5075891;28;20175;-89
2023/09/30 01:01:47;;;;;;;6.83;2.93;;;20.10;99.90;;;;;;5070449;28;20241;-89
2023/09/30 01:04:14;;;;;;;6.00;2.90;;;20.00;99.90;;;;;;5079197;28;20514;-89
2023/09/30 01:06:40;;;;;;;9.17;3.40;;;20.00;99.90;;;;;;5072812;28;20195;-89
2023/09/30 01:09:07;;;;;;;7.13;3.30;;;20.10;99.90;;;;;;5075154;28;20182;-89
2023/09/30 01:11:37;;;;;;;7.40;3.17;;;20.10;99.90;;;;;;5077362;28;20184;-89
2023/09/30 01:14:05;;;;;;;8.90;3.57;;;20.10;99.90;;;;;;5072524;28;20175;-89
2023/09/30 01:16:30;;;;;;;7.90;3.10;;;20.20;99.90;;;;;;5078067;28;20273;-89
2023/09/30 01:18:56;;;;;;;7.53;3.37;;;20.20;99.90;;;;;;5072077;28;20259;-89
2023/09/30 01:21:27;;;;;;;6.10;3.27;;;20.20;99.90;;;;;;5081088;28;20211;-89
2023/09/30 01:23:53;;;;;;;6.53;2.90;;;20.20;99.90;;;;;;5073798;28;20164;-90
2023/09/30 01:26:22;;;;;;;9.40;3.47;;;20.20;99.90;;;;;;5083144;28;20186;-89
2023/09/30 01:28:54;;;;;;;7.83;3.17;;;20.20;99.90;;;;;;5071599;28;20517;-90
2023/09/30 01:31:23;;;;;;;8.03;3.53;;;20.10;99.90;;;;;;5080203;28;20202;-89
2023/09/30 01:33:54;;;;;;;6.97;3.70;;;20.00;99.90;;;;;;5068856;28;20184;-89
2023/09/30 01:36:19;;;;;;;7.47;3.23;;;20.00;99.90;;;;;;5083260;28;20159;-90
2023/09/30 01:38:48;;;;;;;7.13;3.30;;;20.00;99.90;;;;;;5092010;28;20472;-89
2023/09/30 01:41:17;;;;;;;6.13;3.07;;;20.00;99.90;;;;;;5082262;28;20198;-89
2023/09/30 01:43:46;;;;;;;6.30;3.07;;;20.00;99.90;;;;;;5068878;28;20176;-89
2023/09/30 01:49:01;;;;;;;6.77;3.00;;;20.00;99.90;;;;;;5069376;28;20191;-89
2023/09/30 01:51:27;;;;;;;8.40;3.53;;;20.10;99.90;;;;;;5082900;28;20466;-89
2023/09/30 01:54:00;;;;;;;7.10;3.23;;;20.10;99.90;;;;;;5070293;28;20176;-89
2023/09/30 01:56:27;;;;;;;6.60;3.13;;;20.10;99.90;;;;;;5082502;28;20198;-89
2023/09/30 01:58:53;;;;;;;8.07;3.17;;;20.10;99.90;;;;;;5078795;28;20171;-89
2023/09/30 02:01:33;;;;;;;7.23;3.13;;;20.10;99.90;;;;;;5086273;28;20267;-89
2023/09/30 02:04:06;;;;;;;6.67;3.03;;;20.10;99.90;;;;;;5071305;28;20179;-89
2023/09/30 02:06:38;;;;;;;6.40;3.00;;;20.10;99.90;;;;;;5080610;28;20175;-90
2023/09/30 02:09:08;;;;;;;8.13;3.17;;;20.10;99.90;;;;;;5072609;28;20176;-89
2023/09/30 02:11:37;;;;;;;7.20;2.73;;;20.10;99.90;;;;;;5075098;28;20569;-89
2023/09/30 02:14:06;;;;;;;6.97;3.07;;;20.00;99.90;;;;;;5086658;28;20218;-89
2023/09/30 02:16:32;;;;;;;5.47;2.70;;;20.00;99.90;;;;;;5083695;28;20187;-89
2023/09/30 02:19:00;;;;;;;4.97;3.03;;;20.00;99.90;;;;;;5084367;28;20178;-89
2023/09/30 02:21:29;;;;;;;6.13;3.10;;;20.00;99.90;;;;;;5085525;28;20264;-89
2023/09/30 02:23:55;;;;;;;7.53;3.03;;;20.00;99.90;;;;;;5083750;28;20312;-89
2023/09/30 02:26:21;;;;;;;7.83;3.63;;;20.00;99.90;;;;;;5084339;28;20182;-89
2023/09/30 02:28:48;;;;;;;5.50;3.23;;;20.00;99.90;;;;;;5081771;28;20415;-89
2023/09/30 02:31:17;;;;;;;6.30;3.00;;;20.00;99.90;;;;;;5089594;28;20228;-90
2023/09/30 02:33:43;;;;;;;6.37;3.13;;;20.00;99.90;;;;;;5078974;28;20182;-89
2023/09/30 02:36:09;;;;;;;7.47;3.53;;;20.00;99.90;;;;;;5090140;28;20183;-90
2023/09/30 02:38:38;;;;;;;4.70;3.00;;;19.90;99.90;;;;;;5078909;28;20209;-89
2023/09/30 02:41:07;;;;;;;5.97;3.03;;;20.00;99.90;;;;;;5090336;28;20297;-89
2023/09/30 02:43:33;;;;;;;5.60;2.80;;;19.90;99.90;;;;;;5076405;28;20402;-89
2023/09/30 02:46:01;;;;;;;6.47;2.80;;;19.90;99.90;;;;;;5089398;28;20167;-89
2023/09/30 02:48:30;;;;;;;6.50;3.20;;;19.90;99.90;;;;;;5075743;28;20164;-89
2023/09/30 02:51:02;;;;;;;5.90;2.93;;;19.90;99.90;;;;;;5089301;28;20198;-90
2023/09/30 02:53:30;;;;;;;6.83;2.93;;;19.80;99.90;;;;;;5076680;28;20234;-89
2023/09/30 02:55:59;;;;;;;5.30;2.93;;;19.80;99.90;;;;;;5089472;28;20544;-89
2023/09/30 02:58:28;;;;;;;4.50;2.70;;;19.80;99.90;;;;;;5083650;28;20390;-91
2023/09/30 03:00:54;;;;;;;7.40;2.87;;;19.80;99.90;;;;;;5069755;28;20195;-89
2023/09/30 03:03:30;;;;;;;6.13;2.73;;;19.80;99.90;;;;;;5078885;28;20225;-90
2023/09/30 03:06:00;;;;;;;6.40;3.10;;;19.80;99.90;;;;;;5072372;28;20237;-89
2023/09/30 03:08:26;;;;;;;5.83;3.07;;;19.80;99.90;;;;;;5078240;28;20171;-90
2023/09/30 03:10:55;;;;;;;5.67;2.60;;;19.80;99.90;;;;;;5074833;28;20660;-89
2023/09/30 03:13:24;;;;;;;5.13;2.80;;;19.80;99.90;;;;;;5076671;28;20249;-89
2023/09/30 03:15:56;;;;;;;4.63;2.63;;;19.80;99.90;;;;;;5075195;28;20182;-89
2023/09/30 03:18:26;;;;;;;7.27;3.00;;;19.80;99.90;;;;;;5070278;28;20581;-89
2023/09/30 03:21:00;;;;;;;5.60;2.93;;;19.80;99.90;;;;;;5082258;28;20780;-89
2023/09/30 03:23:30;;;;;;;6.70;2.80;;;19.80;99.90;;;;;;5085013;28;20173;-89
2023/09/30 03:26:16;;;;;;;7.17;3.00;;;19.80;99.90;;;;;;5081003;28;20178;-89
2023/09/30 03:28:46;;;;;;;6.07;2.40;;;19.70;99.90;;;;;;5066512;28;20177;-89
2023/09/30 03:31:20;;;;;;;5.73;2.57;;;19.70;99.90;;;;;;5078361;28;20226;-89
2023/09/30 03:33:47;;;;;;;6.87;3.07;;;19.70;99.90;;;;;;5077389;28;20197;-89
2023/09/30 03:36:15;;;;;;;5.40;2.63;;;19.70;99.90;;;;;;5086254;28;20270;-89
2023/09/30 03:38:43;;;;;;;5.23;2.70;;;19.70;99.90;;;;;;5089742;28;20201;-89
2023/09/30 03:41:13;;;;;;;5.30;2.67;;;19.70;99.90;;;;;;5082563;28;20498;-89
2023/09/30 03:43:41;;;;;;;5.47;2.70;;;19.70;99.90;;;;;;5092620;28;20178;-89
2023/09/30 03:46:11;;;;;;;7.87;2.93;;;19.70;99.90;;;;;;5080925;28;20553;-89
2023/09/30 03:48:39;;;;;;;6.43;2.50;;;19.60;99.90;;;;;;5090688;28;20405;-89
2023/09/30 03:51:13;;;;;;;4.63;2.57;;;19.60;99.90;;;;;;5082416;28;20344;-89
2023/09/30 03:53:46;;;;;;;4.73;2.40;;;19.60;99.90;;;;;;5091651;28;20171;-89
2023/09/30 03:56:13;;;;;;;7.23;2.83;;;19.60;99.90;;;;;;5082870;28;20544;-88
2023/09/30 03:58:42;;;;;;;6.57;2.50;;;19.60;99.90;;;;;;5087317;28;20179;-89
2023/09/30 04:01:11;;;;;;;6.37;2.67;;;19.50;99.90;;;;;;5081649;28;20285;-89
2023/09/30 04:03:40;;;;;;;6.17;2.80;;;19.60;99.90;;;;;;5092922;28;20171;-89
2023/09/30 04:06:07;;;;;;;6.37;2.43;;;19.60;99.90;;;;;;5078443;28;20168;-89
2023/09/30 04:08:36;;;;;;;6.63;2.67;;;19.60;99.90;;;;;;5091439;28;20194;-89
2023/09/30 04:11:05;;;;;;;5.87;2.67;;;19.60;99.90;;;;;;5077722;28;20191;-89
2023/09/30 04:13:55;;;;;;;5.63;2.73;;;19.60;99.90;;;;;;5091836;28;20248;-89
2023/09/30 04:16:20;;;;;;;5.00;2.60;;;19.60;99.90;;;;;;5064329;28;20194;-89
2023/09/30 04:18:46;;;;;;;4.77;2.53;;;19.60;99.90;;;;;;5088831;28;20171;-89
2023/09/30 04:21:12;;;;;;;5.13;2.50;;;19.60;99.90;;;;;;5078527;28;20268;-89
2023/09/30 04:23:41;;;;;;;4.37;2.50;;;19.60;99.90;;;;;;5087689;28;20171;-89
2023/09/30 04:26:10;;;;;;;5.07;2.40;;;19.60;99.90;;;;;;5079316;28;20269;-90
2023/09/30 04:28:39;;;;;;;7.67;3.20;;;19.50;99.90;;;;;;5083969;28;20197;-89
2023/09/30 04:31:07;;;;;;;4.77;2.57;;;19.50;99.90;;;;;;5079235;28;20175;-89
2023/09/30 04:33:34;;;;;;;6.13;2.70;;;19.50;99.90;;;;;;5081702;28;20167;-89
2023/09/30 04:36:01;;;;;;;4.43;2.60;;;19.50;99.90;;;;;;5081743;28;20325;-89
2023/09/30 04:38:30;;;;;;;4.67;2.20;;;19.50;99.90;;;;;;5083779;28;20187;-89
2023/09/30 04:40:57;;;;;;;4.77;2.40;;;19.50;99.90;;;;;;5085743;28;20220;-89
2023/09/30 04:43:29;;;;;;;4.57;2.57;;;19.50;99.90;;;;;;5082054;28;20167;-89
2023/09/30 04:45:56;;;;;;;3.97;2.13;;;19.50;99.90;;;;;;5087791;28;20159;-89
2023/09/30 04:48:25;;;;;;;8.27;2.67;;;19.50;99.90;;;;;;5082897;28;20167;-89
2023/09/30 04:50:55;;;;;;;4.80;2.67;;;19.50;99.90;;;;;;5089088;28;20392;-89
2023/09/30 04:53:23;;;;;;;6.13;2.67;;;19.50;99.90;;;;;;5061509;28;20202;-88
2023/09/30 04:55:51;;;;;;;6.67;2.57;;;19.40;99.90;;;;;;5094516;28;20179;-89
2023/09/30 04:58:20;;;;;;;6.50;2.37;;;19.40;99.90;;;;;;5076455;28;20266;-89
2023/09/30 05:01:09;;;;;;;5.67;2.40;;;19.50;99.90;;;;;;5069740;28;20175;-89
2023/09/30 05:03:38;;;;;;;5.20;2.43;;;19.50;99.90;;;;;;5088839;28;20625;-89
2023/09/30 05:06:07;;;;;;;4.87;2.60;;;19.40;99.90;;;;;;5091411;28;20414;-90
2023/09/30 05:08:36;;;;;;;4.67;2.40;;;19.40;99.90;;;;;;5082106;28;20194;-89
2023/09/30 05:11:01;;;;;;;4.87;2.40;;;19.40;99.90;;;;;;5091998;28;20182;-89
2023/09/30 05:13:27;;;;;;;5.17;2.47;;;19.40;99.90;;;;;;5078002;28;20167;-89
2023/09/30 05:15:56;;;;;;;4.70;2.30;;;19.40;99.90;;;;;;5092049;28;20173;-89
2023/09/30 05:18:24;;;;;;;5.00;2.50;;;19.40;99.90;;;;;;5084832;28;20284;-89
2023/09/30 05:20:53;;;;;;;6.17;2.40;;;19.40;99.90;;;;;;5071723;28;20175;-89
2023/09/30 05:23:19;;;;;;;4.67;2.43;;;19.30;99.90;;;;;;5081875;28;20198;-88
2023/09/30 05:25:47;;;;;;;4.30;2.10;;;19.30;99.90;;;;;;5070145;28;20549;-89
2023/09/30 05:28:16;;;;;;;4.90;2.13;;;19.30;99.90;;;;;;5081353;28;20171;-89
2023/09/30 05:30:43;;;;;;;4.03;2.30;;;19.30;99.90;;;;;;5072410;28;20215;-89
2023/09/30 05:33:14;;;;;;;6.07;2.70;;;19.30;99.90;;;;;;5078613;28;20171;-89
2023/09/30 05:35:43;;;;;;;3.80;2.30;;;19.30;99.90;;;;;;5073556;28;20172;-88
2023/09/30 05:38:12;;;;;;;4.20;2.13;;;19.30;99.90;;;;;;5077866;28;20183;-88
2023/09/30 05:40:48;;;;;;;4.13;2.30;;;19.20;99.90;;;;;;5076750;28;20270;-89
2023/09/30 05:43:14;;;;;;;3.40;2.07;;;19.20;99.90;;;;;;5077340;28;20166;-89
2023/09/30 05:45:48;;;;;;;4.97;2.10;;;19.20;99.90;;;;;;5078527;28;20176;-89
2023/09/30 05:48:18;;;;;;;4.90;2.80;;;19.20;99.90;;;;;;5074512;28;20227;-89
2023/09/30 05:50:47;;;;;;;5.93;2.63;;;19.20;99.90;;;;;;5076232;28;20356;-88
2023/09/30 05:53:16;;;;;;;5.23;2.40;;;19.20;99.90;;;;;;5069468;28;20200;-89
2023/09/30 05:55:46;;;;;;;5.63;2.40;;;19.20;99.90;;;;;;5079960;28;20484;-89
2023/09/30 05:58:14;;;;;;;5.60;2.87;;;19.20;99.90;;;;;;5083812;28;20208;-89
2023/09/30 06:00:43;;;;;;;5.17;2.60;;;19.20;99.90;;;;;;5077498;28;20167;-88
2023/09/30 06:03:12;;;;;;;5.57;2.50;;;19.20;99.90;;;;;;5090231;28;20164;-89
2023/09/30 06:05:43;;;;;;;4.70;2.43;;;19.20;99.90;;;;;;5078067;28;20210;-89
2023/09/30 06:08:14;;;;;;;5.10;2.70;;;19.20;99.90;;;;;;5090039;28;20170;-89
2023/09/30 06:10:43;;;;;;;5.90;2.50;;;19.20;99.90;;;;;;5079080;28;20159;-89
2023/09/30 06:13:10;;;;;;;6.77;2.90;;;19.20;99.90;;;;;;5089666;28;20318;-88
2023/09/30 06:15:41;;;;;;;4.70;2.43;;;19.20;99.90;;;;;;5078018;28;20405;-88
2023/09/30 06:18:07;;;;;;;5.47;2.57;;;19.20;99.90;;;;;;5090062;28;20560;-89
2023/09/30 06:20:35;;;;;;;5.47;2.83;;;19.20;99.90;;;;;;5077636;28;20168;-89
2023/09/30 06:23:04;;;;;;;5.43;2.73;;;19.20;99.90;;;;;;5091531;28;20596;-89
2023/09/30 06:25:33;;;;;;;5.23;2.83;;;19.20;99.90;;;;;;5076954;28;20164;-90
2023/09/30 06:28:04;;;;;;;5.23;2.77;;;19.30;99.90;;;;;;5090945;28;20170;-89
2023/09/30 06:30:30;;;;;;;5.90;3.43;;;19.30;99.90;;;;;;5077776;28;20171;-89
2023/09/30 06:33:00;;;;;;;5.37;2.73;;;19.30;99.90;;;;;;5087983;28;20251;-89
2023/09/30 06:36:14;;;;;;;6.03;3.00;;;19.40;99.90;;;;;;5080672;28;20172;-89
2023/09/30 06:38:19;;;;;;;5.03;2.83;;;19.40;99.90;;;;;;5067044;28;20203;-89
2023/09/30 06:40:48;;;;;;;4.60;2.57;;;19.40;99.90;;;;;;5075432;28;20187;-89
2023/09/30 06:43:20;;;;;;;5.47;3.00;;;19.50;99.90;;;;;;5089038;28;20179;-89
2023/09/30 06:45:49;;;;;;;4.20;2.97;;;19.50;99.90;;;;;;5080480;28;20175;-89
2023/09/30 06:48:16;;;;;;;5.53;2.90;;;19.60;99.90;;;;;;5087961;28;20223;-89
2023/09/30 06:50:48;;;;;;;6.93;4.10;;;19.60;99.90;;;;;;5080802;28;20167;-89
2023/09/30 06:53:16;;;;;;;5.43;2.77;;;19.60;99.90;;;;;;5084529;28;20167;-89
2023/09/30 06:55:43;;;;;;;8.13;4.20;;;19.60;99.90;;;;;;5082899;28;20345;-89
2023/09/30 06:58:13;;;;;;;4.30;2.70;;;19.70;99.90;;;;;;5080099;28;20177;-89
2023/09/30 07:00:41;;;;;;;5.27;2.93;;;19.80;99.90;;;;;;5073123;28;20384;-89
2023/09/30 07:03:10;;;;;;;4.90;3.10;;;19.80;99.90;;;;;;5075827;28;20201;-89
2023/09/30 07:05:36;;;;;;;5.90;2.97;;;19.90;99.90;;;;;;5072672;28;20170;-89
2023/09/30 07:08:02;;;;;;;6.40;3.57;;;19.90;99.80;;;;;;5081317;28;20173;-89
2023/09/30 07:10:31;;;;;;;4.57;2.93;;;19.90;99.90;;;;;;5073180;28;20172;-89
2023/09/30 07:13:04;;;;;;;5.40;3.00;;;20.00;99.70;;;;;;5079579;28;20202;-89
2023/09/30 07:15:33;;;;;;;6.40;3.53;;;20.10;99.60;;;;;;5089621;28;20171;-89
2023/09/30 07:18:02;;;;;;;12.93;4.80;;;20.10;99.80;;;;;;5077850;28;20519;-89
2023/09/30 07:20:29;;;;;;;4.47;3.07;;;20.10;99.70;;;;;;5089984;28;20197;-89
2023/09/30 07:22:57;;;;;;;6.10;2.57;;;20.20;99.30;;;;;;5078841;28;20525;-89
2023/09/30 07:25:26;;;;;;;5.30;3.30;;;20.20;99.40;;;;;;5089436;28;20610;-89
2023/09/30 07:27:52;;;;;;;5.30;2.80;;;20.30;99.40;;;;;;5077038;28;20856;-89
2023/09/30 07:30:20;;;;;;;6.03;3.20;;;20.30;99.50;;;;;;5091388;28;20175;-89
2023/09/30 07:32:50;;;;;;;4.80;2.70;;;20.40;99.60;;;;;;5077433;28;20172;-89
2023/09/30 07:35:18;;;;;;;5.80;3.20;;;20.40;99.50;;;;;;5070504;28;20179;-90
2023/09/30 07:37:47;;;;;;;4.20;2.70;;;20.50;99.50;;;;;;5075044;28;20213;-89
2023/09/30 07:40:16;;;;;;;5.60;3.20;;;20.50;99.50;;;;;;5091484;28;20166;-89
2023/09/30 07:42:44;;;;;;;9.20;3.37;;;20.60;99.50;;;;;;5083585;28;20199;-89
2023/09/30 07:45:16;;;;;;;7.83;3.30;;;20.60;99.40;;;;;;5090534;28;20586;-89
2023/09/30 07:47:43;;;;;;;8.93;3.60;;;20.70;99.30;;;;;;5082096;28;20168;-89
2023/09/30 07:50:09;;;;;;;16.13;4.33;;;20.70;99.30;;;;;;5087392;28;20167;-89
2023/09/30 07:52:42;;;;;;;18.23;5.53;;;20.80;99.90;;;;;;5086354;28;20166;-89
2023/09/30 07:55:11;;;;;;;13.23;4.80;;;20.80;99.90;;;;;;5076061;28;20182;-89
2023/09/30 07:57:42;;;;;;;12.90;5.13;;;20.80;99.90;;;;;;5075345;28;20195;-89
2023/09/30 08:00:14;;;;;;;16.07;5.50;;;20.90;99.90;;;;;;5085414;28;20179;-89
2023/09/30 08:02:41;;;;;;;18.10;5.03;;;20.90;99.90;;;;;;5087985;28;20194;-89
2023/09/30 08:05:10;;;;;;;12.87;4.73;;;20.90;99.90;;;;;;5083472;28;20167;-89
2023/09/30 08:07:36;;;;;;;14.57;4.30;;;21.00;99.90;;;;;;5091335;28;20459;-89
2023/09/30 08:10:06;;;;;;;16.10;5.00;;;21.00;99.90;;;;;;5083256;28;20170;-89
2023/09/30 08:12:35;;;;;;;11.77;4.47;;;21.10;99.90;;;;;;5091281;28;20168;-89
2023/09/30 08:15:05;;;;;;;15.37;4.73;;;21.20;99.90;;;;;;5080043;28;20548;-89
2023/09/30 08:17:34;;;;;;;14.60;4.33;;;21.30;99.90;;;;;;5075356;28;20255;-90
2023/09/30 08:20:00;;;;;;;16.57;4.93;;;21.40;99.90;;;;;;5080482;28;20183;-89
2023/09/30 08:22:38;;;;;;;14.87;4.77;;;21.50;99.70;;;;;;5090284;28;20203;-90
2023/09/30 08:25:07;;;;;;;12.53;4.00;;;21.50;99.30;;;;;;5082342;28;20278;-89
2023/09/30 08:27:36;;;;;;;14.53;4.13;;;21.60;99.10;;;;;;5070544;28;20172;-89
2023/09/30 08:30:04;;;;;;;8.53;3.83;;;21.60;98.80;;;;;;5081468;28;20168;-89
2023/09/30 08:32:35;;;;;;;7.37;4.00;;;21.60;98.80;;;;;;5070453;28;20179;-89
2023/09/30 08:35:11;;;;;;;11.93;4.20;;;21.60;98.80;;;;;;5082719;28;20185;-89
2023/09/30 08:37:39;;;;;;;9.93;4.30;;;21.50;98.90;;;;;;5068587;28;20183;-89
2023/09/30 08:40:06;;;;;;;11.27;4.00;;;21.50;99.00;;;;;;5080425;28;20252;-89
2023/09/30 08:42:35;;;;;;;8.20;3.67;;;21.40;99.00;;;;;;5068053;28;20489;-89
2023/09/30 08:45:06;;;;;;;8.97;4.03;;;21.40;99.10;;;;;;5068173;28;20168;-89
2023/09/30 08:47:34;;;;;;;7.37;3.70;;;21.30;99.20;;;;;;5067411;28;20270;-90
2023/09/30 08:50:05;;;;;;;9.60;3.93;;;21.40;99.30;;;;;;5085675;28;20250;-89
2023/09/30 08:52:35;;;;;;;7.83;3.70;;;21.30;99.30;;;;;;5071240;28;20270;-89
2023/09/30 08:55:07;;;;;;;8.33;3.70;;;21.30;99.30;;;;;;5078595;28;20413;-89
2023/09/30 08:57:43;;;;;;;8.00;3.77;;;21.30;99.20;;;;;;5070008;28;20198;-89
2023/09/30 09:00:11;;;;;;;7.93;3.63;;;21.30;99.30;;;;;;5082437;28;20183;-90
2023/09/30 09:02:41;;;;;;;7.63;3.30;;;21.30;99.30;;;;;;5071033;28;20248;-89
2023/09/30 09:05:13;;;;;;;7.63;3.40;;;21.30;99.20;;;;;;5075595;28;20564;-89
2023/09/30 09:07:42;;;;;;;6.67;3.30;;;21.30;99.10;;;;;;5071519;28;20281;-89
2023/09/30 09:10:18;;;;;;;7.80;3.20;;;21.30;99.00;;;;;;5072914;28;20179;-89
2023/09/30 09:12:56;;;;;;;6.17;3.40;;;21.40;98.90;;;;;;5074265;28;20175;-89
2023/09/30 09:15:25;;;;;;;7.50;3.47;;;21.30;98.90;;;;;;5074126;28;20221;-89
2023/09/30 09:17:54;;;;;;;5.93;3.07;;;21.30;98.90;;;;;;5072195;28;20270;-89
2023/09/30 09:20:25;;;;;;;6.80;3.37;;;21.30;98.80;;;;;;5072182;28;20163;-89
2023/09/30 09:22:55;;;;;;;5.93;3.13;;;21.30;98.80;;;;;;5072858;28;20200;-88
2023/09/30 09:25:27;;;;;;;6.53;3.10;;;21.30;99.00;;;;;;5067877;28;20280;-89
2023/09/30 09:27:56;;;;;;;8.03;3.30;;;21.20;99.10;;;;;;5073211;28;20525;-89
2023/09/30 09:30:26;;;;;;;7.70;3.10;;;21.20;99.20;;;;;;5067677;28;20333;-89
2023/09/30 09:33:03;;;;;;;7.00;2.93;;;21.20;99.30;;;;;;5075656;28;20416;-89
2023/09/30 09:35:34;;;;;;;7.70;3.23;;;21.20;99.20;;;;;;5066303;28;20199;-89
2023/09/30 09:38:02;;;;;;;9.00;3.20;;;21.20;99.10;;;;;;5057916;28;20227;-89
2023/09/30 09:40:35;;;;;;;7.87;3.33;;;21.20;99.20;;;;;;5066968;28;20175;-89
2023/09/30 09:43:04;;;;;;;6.10;2.80;;;21.20;99.30;;;;;;5076759;28;20499;-89
2023/09/30 09:45:32;;;;;;;7.57;3.30;;;21.30;98.90;;;;;;5069460;28;20459;-89
2023/09/30 09:47:59;;;;;;;6.00;3.20;;;21.30;98.80;;;;;;5073633;28;20562;-89
2023/09/30 09:50:27;;;;;;;6.77;3.30;;;21.30;98.50;;;;;;5083472;28;20171;-90
2023/09/30 09:52:55;;;;;;;7.80;3.27;;;21.40;98.50;;;;;;5074308;28;20519;-89
2023/09/30 09:55:35;;;;;;;7.83;3.23;;;21.40;98.30;;;;;;5082807;28;20369;-89
2023/09/30 09:58:06;;;;;;;7.67;3.10;;;21.40;98.10;;;;;;5069513;28;20171;-89
2023/09/30 10:00:33;;;;;;;6.57;2.70;;;21.40;97.90;;;;;;5064988;28;20171;-89
2023/09/30 10:03:02;;;;;;;6.37;3.30;;;21.40;97.70;;;;;;5076990;28;20542;-88
2023/09/30 10:05:34;;;;;;;7.67;3.67;;;21.40;97.40;;;;;;5063959;28;20229;-89
2023/09/30 10:08:02;;;;;;;6.00;3.23;;;21.40;96.30;;;;;;5076810;28;20194;-89
2023/09/30 10:10:28;;;;;;;6.33;3.17;;;21.40;96.90;;;;;;5065798;28;20267;-89
2023/09/30 10:12:57;;;;;;;5.70;3.10;;;21.40;96.90;;;;;;5077226;28;20177;-89
2023/09/30 10:15:29;;;;;;;6.50;3.13;;;21.40;96.80;;;;;;5067683;28;20190;-89
2023/09/30 10:18:04;;;;;;;7.00;3.10;;;21.50;95.00;;;;;;5070968;28;20424;-89
2023/09/30 10:20:34;;;;;;;6.73;3.40;;;21.60;94.50;;;;;;5086280;28;20174;-89
2023/09/30 10:23:21;;;;;;;6.13;3.10;;;21.60;95.90;;;;;;5076014;28;20363;-90
2023/09/30 10:25:49;;;;;;;5.87;3.00;;;21.70;95.10;;;;;;5066266;28;20214;-89
2023/09/30 10:28:58;;;;;;;5.90;3.00;;;21.70;95.40;;;;;;5075333;28;20235;-89
2023/09/30 10:31:26;;;;;;;6.73;3.67;;;21.70;95.40;;;;;;5063570;28;20171;-89
2023/09/30 10:34:01;;;;;;;6.57;3.70;;;21.60;95.20;;;;;;5075710;28;20174;-89
2023/09/30 10:36:41;;;;;;;6.47;3.07;;;21.70;95.20;;;;;;5063083;28;20446;-89
2023/09/30 10:39:14;;;;;;;8.80;3.23;;;21.70;95.00;;;;;;5077118;28;20269;-89
2023/09/30 10:41:45;;;;;;;10.00;3.40;;;21.80;95.10;;;;;;5065171;28;20359;-89
2023/09/30 10:44:26;;;;;;;5.17;3.00;;;21.70;95.00;;;;;;5077395;28;20175;-90
2023/09/30 10:47:21;;;;;;;5.93;2.90;;;21.70;95.20;;;;;;5065987;28;20178;-90
2023/09/30 10:49:49;;;;;;;5.83;3.20;;;21.60;95.20;;;;;;5080230;28;20167;-89
2023/09/30 10:52:28;;;;;;;8.00;3.30;;;21.60;95.30;;;;;;5065262;28;20167;-89
2023/09/30 10:55:04;;;;;;;5.47;3.50;;;21.60;95.10;;;;;;5079805;28;20541;-89
2023/09/30 10:57:29;;;;;;;5.17;3.03;;;21.60;95.10;;;;;;5066083;28;20479;-89
2023/09/30 11:00:12;;;;;;;5.73;2.83;;;21.50;95.00;;;;;;5077018;28;20167;-89
2023/09/30 11:02:57;;;;;;;8.70;3.33;;;21.40;95.00;;;;;;5061566;28;20651;-89
2023/09/30 11:05:23;;;;;;;4.90;2.63;;;21.40;95.10;;;;;;5071901;28;20269;-89
2023/09/30 11:07:59;;;;;;;7.43;3.03;;;21.30;94.90;;;;;;5085451;28;20298;-89
2023/09/30 11:10:25;;;;;;;7.67;3.07;;;21.30;95.00;;;;;;5074063;28;20544;-88
2023/09/30 11:12:57;;;;;;;6.60;3.20;;;21.30;95.10;;;;;;5081377;28;20190;-88
2023/09/30 11:15:27;;;;;;;6.00;3.03;;;21.30;95.00;;;;;;5069005;28;20412;-88
2023/09/30 11:17:53;;;;;;;4.50;2.53;;;21.40;95.20;;;;;;5082468;28;20179;-88
2023/09/30 11:20:19;;;;;;;7.07;3.10;;;21.40;95.00;;;;;;5071125;28;20191;-88
2023/09/30 11:22:46;;;;;;;6.00;3.33;;;21.40;94.90;;;;;;5085400;28;20201;-88
2023/09/30 11:25:22;;;;;;;6.47;2.90;;;21.50;94.90;;;;;;5074412;28;20168;-88
2023/09/30 11:27:48;;;;;;;7.60;2.87;;;21.50;94.80;;;;;;5092622;28;20328;-88
2023/09/30 11:30:14;;;;;;;6.50;2.90;;;21.60;94.40;;;;;;5076430;28;20313;-88
2023/09/30 11:32:43;;;;;;;5.63;2.90;;;21.60;93.80;;;;;;5080258;28;20167;-88
2023/09/30 11:35:17;;;;;;;5.40;3.00;;;21.60;94.50;;;;;;5078127;28;20739;-88
2023/09/30 11:37:46;;;;;;;4.17;3.17;;;21.60;94.50;;;;;;5083323;28;20202;-88
2023/09/30 11:40:15;;;;;;;6.20;2.90;;;21.60;94.70;;;;;;5075685;28;20524;-88
2023/09/30 11:42:41;;;;;;;7.57;3.10;;;21.60;94.80;;;;;;5073751;28;20253;-88
2023/09/30 11:45:23;;;;;;;8.40;3.27;;;21.60;94.90;;;;;;5077052;28;20272;-89
2023/09/30 11:47:51;;;;;;;5.93;2.93;;;21.60;94.70;;;;;;5075695;28;20228;-88
2023/09/30 11:50:20;;;;;;;6.73;2.70;;;21.70;94.60;;;;;;5079633;28;20194;-88
2023/09/30 11:52:49;;;;;;;8.03;3.10;;;21.70;94.80;;;;;;5073498;28;20568;-88
2023/09/30 11:55:16;;;;;;;8.17;3.20;;;21.60;94.80;;;;;;5069543;28;20266;-88
2023/09/30 11:57:42;;;;;;;5.80;2.73;;;21.70;94.10;;;;;;5075895;28;20197;-88
2023/09/30 12:00:13;;;;;;;7.97;2.70;;;21.70;94.50;;;;;;5084207;28;20537;-88
2023/09/30 12:02:40;;;;;;;10.20;3.30;;;21.70;94.60;;;;;;5075390;28;20194;-88
2023/09/30 12:05:11;;;;;;;4.67;2.90;;;21.70;94.60;;;;;;5082622;28;20176;-88
2023/09/30 12:07:41;;;;;;;9.40;3.10;;;21.70;94.70;;;;;;5075716;28;20600;-88
2023/09/30 12:10:10;;;;;;;5.43;3.03;;;21.60;94.70;;;;;;5084071;28;20163;-88
2023/09/30 12:12:39;;;;;;;6.63;3.07;;;21.60;94.80;;;;;;5073557;28;20164;-88
2023/09/30 12:15:09;;;;;;;8.23;2.93;;;21.60;94.70;;;;;;5062402;28;20175;-88
2023/09/30 12:17:39;;;;;;;3.93;2.53;;;21.60;94.40;;;;;;5076381;28;20199;-88
2023/09/30 12:20:06;;;;;;;4.97;2.70;;;21.60;94.10;;;;;;5064513;28;20209;-89
2023/09/30 12:22:32;;;;;;;5.00;2.77;;;21.60;93.90;;;;;;5077477;28;20260;-88
2023/09/30 12:24:58;;;;;;;5.03;2.77;;;21.60;93.70;;;;;;5064705;28;20633;-88
2023/09/30 12:27:24;;;;;;;7.23;3.13;;;21.60;93.70;;;;;;5077663;28;20235;-88
2023/09/30 12:29:50;;;;;;;4.40;2.60;;;21.60;93.60;;;;;;5067493;28;20469;-88
2023/09/30 12:32:16;;;;;;;5.13;2.43;;;21.50;91.70;;;;;;5076869;28;20744;-88
2023/09/30 12:34:44;;;;;;;5.27;2.60;;;21.50;93.00;;;;;;5070421;28;20518;-88
2023/09/30 12:37:13;;;;;;;6.37;2.60;;;21.60;93.20;;;;;;5074207;28;20714;-88
2023/09/30 12:39:44;;;;;;;7.17;2.90;;;21.60;92.80;;;;;;5073128;28;20526;-88
2023/09/30 12:42:12;;;;;;;5.07;2.27;;;21.60;92.80;;;;;;5071729;28;20319;-87
2023/09/30 12:44:38;;;;;;;6.10;2.90;;;21.60;92.60;;;;;;5073097;28;20325;-88
2023/09/30 12:47:07;;;;;;;5.40;2.90;;;21.60;92.60;;;;;;5069352;28;20419;-88
2023/09/30 12:49:36;;;;;;;4.40;2.87;;;21.60;89.00;;;;;;5073215;28;20320;-88
2023/09/30 12:52:08;;;;;;;4.80;2.60;;;21.50;92.10;;;;;;5066832;28;20168;-88
2023/09/30 12:54:37;;;;;;;7.50;2.77;;;21.60;92.60;;;;;;5077637;28;20172;-88
2023/09/30 12:57:07;;;;;;;6.93;2.70;;;21.60;92.40;;;;;;5066443;28;20180;-87
2023/09/30 12:59:34;;;;;;;7.83;3.10;;;21.60;92.50;;;;;;5073022;28;20179;-88